sensor_id;sensor_type;location;lat;lon;timestamp;pressure;altitude;pressure_sealevel;temperature;humidity
36932;BME280;22847;42.654;23.370;2022-09-01T00:01:14;94503.25;;;20.99;66.28
36932;BME280;22847;42.654;23.370;2022-09-01T00:03:46;94446.38;;;20.94;65.63
36932;BME280;22847;42.654;23.370;2022-09-01T00:06:14;94523.31;;;21.26;65.77
36932;BME280;22847;42.654;23.370;2022-09-01T00:08:39;94515.84;;;21.16;65.95
36932;BME280;22847;42.654;23.370;2022-09-01T00:11:04;94267.69;;;19.83;65.30
36932;BME280;22847;42.654;23.370;2022-09-01T00:13:30;94484.31;;;21.33;65.32
36932;BME280;22847;42.654;23.370;2022-09-01T00:16:00;94318.78;;;20.35;64.92
36932;BME280;22847;42.654;23.370;2022-09-01T00:18:29;94481.31;;;21.54;64.31
36932;BME280;22847;42.654;23.370;2022-09-01T00:20:55;94482.25;;;21.35;64.70
36932;BME280;22847;42.654;23.370;2022-09-01T00:23:24;94482.19;;;21.10;65.06
36932;BME280;22847;42.654;23.370;2022-09-01T00:25:50;94472.06;;;21.01;64.47
36932;BME280;22847;42.654;23.370;2022-09-01T00:28:15;94486.59;;;20.85;64.97
36932;BME280;22847;42.654;23.370;2022-09-01T00:30:41;94409.69;;;20.67;65.84
36932;BME280;22847;42.654;23.370;2022-09-01T00:33:06;94489.94;;;20.74;66.51
36932;BME280;22847;42.654;23.370;2022-09-01T00:35:32;94483.84;;;21.05;64.98
36932;BME280;22847;42.654;23.370;2022-09-01T00:37:57;94474.91;;;20.99;66.44
36932;BME280;22847;42.654;23.370;2022-09-01T00:40:23;94450.19;;;20.74;66.70
36932;BME280;22847;42.654;23.370;2022-09-01T00:42:48;94490.31;;;20.77;67.68
36932;BME280;22847;42.654;23.370;2022-09-01T00:45:14;94483.28;;;20.96;67.67
36932;BME280;22847;42.654;23.370;2022-09-01T00:47:39;94358.53;;;20.22;66.99
36932;BME280;22847;42.654;23.370;2022-09-01T00:50:07;94490.56;;;21.14;66.48
36932;BME280;22847;42.654;23.370;2022-09-01T00:52:35;94327.97;;;20.19;65.28
36932;BME280;22847;42.654;23.370;2022-09-01T00:55:14;94459.88;;;20.93;65.12
36932;BME280;22847;42.654;23.370;2022-09-01T00:57:40;94486.16;;;20.94;65.04
36932;BME280;22847;42.654;23.370;2022-09-01T01:00:19;94518.31;;;21.11;65.33
36932;BME280;22847;42.654;23.370;2022-09-01T01:02:46;94328.03;;;20.06;64.83
36932;BME280;22847;42.654;23.370;2022-09-01T01:05:12;94532.16;;;21.20;64.84
36932;BME280;22847;42.654;23.370;2022-09-01T01:07:40;94435.47;;;20.78;65.14
36932;BME280;22847;42.654;23.370;2022-09-01T01:10:13;94506.28;;;21.15;65.37
36932;BME280;22847;42.654;23.370;2022-09-01T01:12:40;94348.09;;;20.27;65.82
36932;BME280;22847;42.654;23.370;2022-09-01T01:15:08;94499.94;;;21.10;67.78
36932;BME280;22847;42.654;23.370;2022-09-01T01:17:34;94485.13;;;20.96;67.57
36932;BME280;22847;42.654;23.370;2022-09-01T01:19:59;94351.06;;;20.05;67.07
36932;BME280;22847;42.654;23.370;2022-09-01T01:23:23;94474.06;;;20.67;67.92
36932;BME280;22847;42.654;23.370;2022-09-01T01:25:53;94504.94;;;20.93;67.52
36932;BME280;22847;42.654;23.370;2022-09-01T01:28:27;94507.66;;;20.80;67.87
36932;BME280;22847;42.654;23.370;2022-09-01T01:31:02;94312.41;;;19.21;68.69
36932;BME280;22847;42.654;23.370;2022-09-01T01:33:36;94512.84;;;20.55;68.41
36932;BME280;22847;42.654;23.370;2022-09-01T01:36:05;94325.44;;;18.89;70.04
36932;BME280;22847;42.654;23.370;2022-09-01T01:38:32;94531.47;;;19.43;72.05
36932;BME280;22847;42.654;23.370;2022-09-01T01:41:00;94502.94;;;19.12;72.80
36932;BME280;22847;42.654;23.370;2022-09-01T01:43:26;94425.66;;;19.30;70.51
36932;BME280;22847;42.654;23.370;2022-09-01T01:45:54;94507.03;;;20.00;69.77
36932;BME280;22847;42.654;23.370;2022-09-01T01:48:23;94513.31;;;20.26;68.55
36932;BME280;22847;42.654;23.370;2022-09-01T01:50:52;94495.97;;;20.23;67.92
36932;BME280;22847;42.654;23.370;2022-09-01T01:53:19;94470.59;;;20.02;67.67
36932;BME280;22847;42.654;23.370;2022-09-01T01:55:46;94527.75;;;20.43;68.17
36932;BME280;22847;42.654;23.370;2022-09-01T01:58:16;94486.94;;;19.67;70.46
36932;BME280;22847;42.654;23.370;2022-09-01T02:00:44;94495.06;;;19.65;70.99
36932;BME280;22847;42.654;23.370;2022-09-01T02:03:16;94508.06;;;19.86;70.24
36932;BME280;22847;42.654;23.370;2022-09-01T02:05:44;94350.03;;;19.16;69.00
36932;BME280;22847;42.654;23.370;2022-09-01T02:08:11;94556.69;;;20.25;69.50
36932;BME280;22847;42.654;23.370;2022-09-01T02:10:43;94481.16;;;20.09;69.26
36932;BME280;22847;42.654;23.370;2022-09-01T02:13:11;94322.00;;;18.76;71.22
36932;BME280;22847;42.654;23.370;2022-09-01T02:16:01;94497.28;;;19.81;70.63
36932;BME280;22847;42.654;23.370;2022-09-01T02:18:33;94508.06;;;19.60;71.91
36932;BME280;22847;42.654;23.370;2022-09-01T02:21:00;94511.94;;;19.71;71.12
36932;BME280;22847;42.654;23.370;2022-09-01T02:23:26;94455.16;;;18.47;73.97
36932;BME280;22847;42.654;23.370;2022-09-01T02:25:57;94539.44;;;18.89;74.84
36932;BME280;22847;42.654;23.370;2022-09-01T02:28:27;94303.75;;;17.18;76.05
36932;BME280;22847;42.654;23.370;2022-09-01T02:30:55;94541.03;;;18.77;75.86
36932;BME280;22847;42.654;23.370;2022-09-01T02:33:22;94534.47;;;19.34;73.89
36932;BME280;22847;42.654;23.370;2022-09-01T02:35:51;94531.97;;;18.99;73.97
36932;BME280;22847;42.654;23.370;2022-09-01T02:38:17;94448.63;;;18.43;74.77
36932;BME280;22847;42.654;23.370;2022-09-01T02:40:46;94549.31;;;19.28;73.49
36932;BME280;22847;42.654;23.370;2022-09-01T02:43:13;94517.38;;;19.30;72.08
36932;BME280;22847;42.654;23.370;2022-09-01T02:45:40;94551.22;;;19.60;71.47
36932;BME280;22847;42.654;23.370;2022-09-01T02:48:09;94491.38;;;19.59;70.31
36932;BME280;22847;42.654;23.370;2022-09-01T02:50:36;94509.91;;;19.66;70.56
36932;BME280;22847;42.654;23.370;2022-09-01T02:53:02;94161.78;;;17.56;69.93
36932;BME280;22847;42.654;23.370;2022-09-01T02:55:31;94495.69;;;19.54;69.71
36932;BME280;22847;42.654;23.370;2022-09-01T02:57:56;94441.31;;;19.25;69.19
36932;BME280;22847;42.654;23.370;2022-09-01T03:00:23;94521.09;;;19.94;68.87
36932;BME280;22847;42.654;23.370;2022-09-01T03:02:55;94509.28;;;20.03;68.69
36932;BME280;22847;42.654;23.370;2022-09-01T03:05:24;94414.91;;;19.58;67.89
36932;BME280;22847;42.654;23.370;2022-09-01T03:08:02;94503.59;;;19.87;68.55
36932;BME280;22847;42.654;23.370;2022-09-01T03:10:31;94448.69;;;19.49;68.02
36932;BME280;22847;42.654;23.370;2022-09-01T03:13:02;94347.00;;;18.86;67.98
36932;BME280;22847;42.654;23.370;2022-09-01T03:15:29;94458.03;;;19.65;67.63
36932;BME280;22847;42.654;23.370;2022-09-01T03:17:54;94509.06;;;19.92;67.59
36932;BME280;22847;42.654;23.370;2022-09-01T03:20:20;94503.19;;;20.03;67.90
36932;BME280;22847;42.654;23.370;2022-09-01T03:22:47;94312.81;;;18.78;67.12
36932;BME280;22847;42.654;23.370;2022-09-01T03:25:13;94520.47;;;20.05;67.19
36932;BME280;22847;42.654;23.370;2022-09-01T03:27:39;94518.25;;;20.02;66.95
36932;BME280;22847;42.654;23.370;2022-09-01T03:30:05;94511.13;;;20.03;67.03
36932;BME280;22847;42.654;23.370;2022-09-01T03:32:31;94434.03;;;19.47;67.49
36932;BME280;22847;42.654;23.370;2022-09-01T03:34:56;94505.19;;;20.01;66.93
36932;BME280;22847;42.654;23.370;2022-09-01T03:37:22;94510.09;;;19.97;67.09
36932;BME280;22847;42.654;23.370;2022-09-01T03:39:48;94513.75;;;20.03;66.71
36932;BME280;22847;42.654;23.370;2022-09-01T03:42:13;94515.00;;;19.94;66.88
36932;BME280;22847;42.654;23.370;2022-09-01T03:44:46;94517.03;;;19.85;67.41
36932;BME280;22847;42.654;23.370;2022-09-01T03:47:13;94527.00;;;19.96;66.88
36932;BME280;22847;42.654;23.370;2022-09-01T03:49:39;94517.84;;;19.79;68.27
36932;BME280;22847;42.654;23.370;2022-09-01T03:52:07;94520.91;;;19.89;68.90
36932;BME280;22847;42.654;23.370;2022-09-01T03:54:33;94516.78;;;20.33;70.36
36932;BME280;22847;42.654;23.370;2022-09-01T03:56:58;94512.06;;;20.41;66.62
36932;BME280;22847;42.654;23.370;2022-09-01T03:59:24;94520.53;;;20.70;69.00
36932;BME280;22847;42.654;23.370;2022-09-01T04:01:51;94516.56;;;20.85;69.62
36932;BME280;22847;42.654;23.370;2022-09-01T04:04:16;94512.78;;;20.68;64.97
36932;BME280;22847;42.654;23.370;2022-09-01T04:06:42;94515.06;;;20.58;64.12
36932;BME280;22847;42.654;23.370;2022-09-01T04:09:08;94515.47;;;20.55;64.82
36932;BME280;22847;42.654;23.370;2022-09-01T04:11:35;94517.34;;;20.48;65.15
36932;BME280;22847;42.654;23.370;2022-09-01T04:14:01;94513.25;;;20.52;64.46
36932;BME280;22847;42.654;23.370;2022-09-01T04:16:28;94526.69;;;20.51;64.52
36932;BME280;22847;42.654;23.370;2022-09-01T04:19:13;94521.03;;;20.40;64.55
36932;BME280;22847;42.654;23.370;2022-09-01T04:21:49;94523.47;;;20.42;64.40
36932;BME280;22847;42.654;23.370;2022-09-01T04:24:15;94520.81;;;20.48;65.27
36932;BME280;22847;42.654;23.370;2022-09-01T04:26:43;94524.25;;;20.62;65.84
36932;BME280;22847;42.654;23.370;2022-09-01T04:29:10;94516.50;;;20.54;65.24
36932;BME280;22847;42.654;23.370;2022-09-01T04:31:37;94518.91;;;20.69;64.80
36932;BME280;22847;42.654;23.370;2022-09-01T04:34:04;94515.03;;;20.65;64.94
36932;BME280;22847;42.654;23.370;2022-09-01T04:36:38;94521.03;;;20.27;65.66
36932;BME280;22847;42.654;23.370;2022-09-01T04:39:05;94518.63;;;20.06;66.57
36932;BME280;22847;42.654;23.370;2022-09-01T04:41:34;94516.00;;;19.73;68.19
36932;BME280;22847;42.654;23.370;2022-09-01T04:44:02;94520.50;;;18.79;72.30
36932;BME280;22847;42.654;23.370;2022-09-01T04:46:28;94524.44;;;19.09;71.68
36932;BME280;22847;42.654;23.370;2022-09-01T04:48:56;94525.44;;;18.89;73.57
36932;BME280;22847;42.654;23.370;2022-09-01T04:51:21;94518.72;;;18.93;73.06
36932;BME280;22847;42.654;23.370;2022-09-01T04:53:48;94508.84;;;19.21;73.19
36932;BME280;22847;42.654;23.370;2022-09-01T04:56:17;94501.34;;;19.77;70.67
36932;BME280;22847;42.654;23.370;2022-09-01T04:58:46;94513.72;;;20.10;69.25
36932;BME280;22847;42.654;23.370;2022-09-01T05:01:14;94496.84;;;20.11;68.79
36932;BME280;22847;42.654;23.370;2022-09-01T05:03:40;94541.81;;;20.24;69.04
36932;BME280;22847;42.654;23.370;2022-09-01T05:06:12;94453.06;;;20.01;68.27
36932;BME280;22847;42.654;23.370;2022-09-01T05:08:38;94462.06;;;19.28;71.80
36932;BME280;22847;42.654;23.370;2022-09-01T05:11:04;94497.41;;;19.01;74.63
36932;BME280;22847;42.654;23.370;2022-09-01T05:13:32;94512.97;;;19.76;72.95
36932;BME280;22847;42.654;23.370;2022-09-01T05:16:03;94341.03;;;18.45;73.10
36932;BME280;22847;42.654;23.370;2022-09-01T05:18:30;94501.81;;;20.58;69.04
36932;BME280;22847;42.654;23.370;2022-09-01T05:20:56;94503.59;;;21.09;65.44
36932;BME280;22847;42.654;23.370;2022-09-01T05:23:22;94481.28;;;20.91;65.64
36932;BME280;22847;42.654;23.370;2022-09-01T05:25:49;94517.13;;;22.19;62.82
36932;BME280;22847;42.654;23.370;2022-09-01T05:28:16;94516.31;;;22.55;60.70
36932;BME280;22847;42.654;23.370;2022-09-01T05:30:45;94513.72;;;22.67;60.47
36932;BME280;22847;42.654;23.370;2022-09-01T05:33:11;94514.84;;;22.41;60.70
36932;BME280;22847;42.654;23.370;2022-09-01T05:35:51;94514.13;;;22.71;59.89
36932;BME280;22847;42.654;23.370;2022-09-01T05:38:17;94508.75;;;23.37;57.55
36932;BME280;22847;42.654;23.370;2022-09-01T05:40:43;94510.94;;;23.70;56.13
36932;BME280;22847;42.654;23.370;2022-09-01T05:43:10;94501.13;;;23.82;56.02
36932;BME280;22847;42.654;23.370;2022-09-01T05:45:37;94509.47;;;23.97;56.18
36932;BME280;22847;42.654;23.370;2022-09-01T05:48:03;94506.00;;;23.85;56.18
36932;BME280;22847;42.654;23.370;2022-09-01T05:50:29;94504.41;;;24.30;55.66
36932;BME280;22847;42.654;23.370;2022-09-01T05:52:55;94506.69;;;24.50;55.34
36932;BME280;22847;42.654;23.370;2022-09-01T05:55:20;94510.19;;;24.51;55.44
36932;BME280;22847;42.654;23.370;2022-09-01T05:57:46;94510.00;;;24.92;54.48
36932;BME280;22847;42.654;23.370;2022-09-01T06:00:12;94509.94;;;25.44;53.37
36932;BME280;22847;42.654;23.370;2022-09-01T06:02:38;94511.88;;;25.48;53.45
36932;BME280;22847;42.654;23.370;2022-09-01T06:05:04;94500.78;;;24.71;55.53
36932;BME280;22847;42.654;23.370;2022-09-01T06:07:29;94506.88;;;24.83;55.10
36932;BME280;22847;42.654;23.370;2022-09-01T06:09:55;94494.66;;;23.89;57.62
36932;BME280;22847;42.654;23.370;2022-09-01T06:12:21;94488.88;;;23.39;59.74
36932;BME280;22847;42.654;23.370;2022-09-01T06:14:49;94345.94;;;23.17;58.02
36932;BME280;22847;42.654;23.370;2022-09-01T06:17:18;94366.66;;;24.31;54.98
36932;BME280;22847;42.654;23.370;2022-09-01T06:19:52;94417.66;;;25.03;53.35
36932;BME280;22847;42.654;23.370;2022-09-01T06:22:19;94468.25;;;25.43;52.78
36932;BME280;22847;42.654;23.370;2022-09-01T06:24:45;94500.13;;;25.77;52.37
36932;BME280;22847;42.654;23.370;2022-09-01T06:27:12;94309.53;;;25.00;51.62
36932;BME280;22847;42.654;23.370;2022-09-01T06:29:43;94352.19;;;25.62;50.72
36932;BME280;22847;42.654;23.370;2022-09-01T06:32:09;94474.31;;;26.55;50.84
36932;BME280;22847;42.654;23.370;2022-09-01T06:34:41;94491.38;;;25.82;52.09
36932;BME280;22847;42.654;23.370;2022-09-01T06:37:09;94514.44;;;25.71;52.40
36932;BME280;22847;42.654;23.370;2022-09-01T06:39:35;94491.78;;;25.57;53.34
36932;BME280;22847;42.654;23.370;2022-09-01T06:42:01;94449.41;;;25.04;54.24
36932;BME280;22847;42.654;23.370;2022-09-01T06:44:27;94444.25;;;25.14;53.80
36932;BME280;22847;42.654;23.370;2022-09-01T06:46:53;94478.44;;;26.24;51.94
36932;BME280;22847;42.654;23.370;2022-09-01T06:49:20;94453.97;;;25.99;51.25
36932;BME280;22847;42.654;23.370;2022-09-01T06:51:47;94333.06;;;25.20;51.21
36932;BME280;22847;42.654;23.370;2022-09-01T06:54:16;94360.31;;;25.22;51.61
36932;BME280;22847;42.654;23.370;2022-09-01T06:56:43;94489.97;;;26.46;50.75
36932;BME280;22847;42.654;23.370;2022-09-01T06:59:09;94448.38;;;26.55;50.16
36932;BME280;22847;42.654;23.370;2022-09-01T07:01:37;94474.84;;;26.95;49.63
36932;BME280;22847;42.654;23.370;2022-09-01T07:04:03;94457.53;;;27.30;48.22
36932;BME280;22847;42.654;23.370;2022-09-01T07:06:29;94486.38;;;27.76;47.99
36932;BME280;22847;42.654;23.370;2022-09-01T07:08:57;94468.91;;;28.01;47.50
36932;BME280;22847;42.654;23.370;2022-09-01T07:11:28;94450.59;;;27.92;47.29
36932;BME280;22847;42.654;23.370;2022-09-01T07:14:03;94479.81;;;28.26;46.79
36932;BME280;22847;42.654;23.370;2022-09-01T07:16:31;94329.56;;;27.64;46.57
36932;BME280;22847;42.654;23.370;2022-09-01T07:18:59;94476.97;;;28.90;45.42
36932;BME280;22847;42.654;23.370;2022-09-01T07:21:26;94463.81;;;28.88;45.35
36932;BME280;22847;42.654;23.370;2022-09-01T07:23:53;94516.56;;;28.67;45.51
36932;BME280;22847;42.654;23.370;2022-09-01T07:26:19;94376.28;;;28.25;45.57
36932;BME280;22847;42.654;23.370;2022-09-01T07:28:50;94297.22;;;27.80;45.15
36932;BME280;22847;42.654;23.370;2022-09-01T07:31:28;94466.19;;;28.79;45.90
36932;BME280;22847;42.654;23.370;2022-09-01T07:33:56;94451.78;;;29.06;45.17
36932;BME280;22847;42.654;23.370;2022-09-01T07:36:23;94472.53;;;29.25;44.58
36932;BME280;22847;42.654;23.370;2022-09-01T07:38:49;94427.72;;;28.69;45.16
36932;BME280;22847;42.654;23.370;2022-09-01T07:41:26;94497.69;;;28.99;45.64
36932;BME280;22847;42.654;23.370;2022-09-01T07:43:53;94423.53;;;28.88;45.30
36932;BME280;22847;42.654;23.370;2022-09-01T07:46:22;94478.66;;;29.16;44.94
36932;BME280;22847;42.654;23.370;2022-09-01T07:48:49;94477.78;;;29.00;45.20
36932;BME280;22847;42.654;23.370;2022-09-01T07:51:17;94296.16;;;27.81;45.43
36932;BME280;22847;42.654;23.370;2022-09-01T07:53:46;94302.94;;;27.52;46.25
36932;BME280;22847;42.654;23.370;2022-09-01T07:56:16;94489.97;;;28.66;46.03
36932;BME280;22847;42.654;23.370;2022-09-01T07:58:44;94447.44;;;28.90;45.71
36932;BME280;22847;42.654;23.370;2022-09-01T08:01:14;94467.78;;;29.58;44.60
36932;BME280;22847;42.654;23.370;2022-09-01T08:03:43;94469.41;;;29.84;43.52
36932;BME280;22847;42.654;23.370;2022-09-01T08:06:11;94457.28;;;29.77;43.32
36932;BME280;22847;42.654;23.370;2022-09-01T08:08:38;94476.41;;;30.10;43.65
36932;BME280;22847;42.654;23.370;2022-09-01T08:11:05;94476.97;;;30.12;43.00
36932;BME280;22847;42.654;23.370;2022-09-01T08:13:35;94297.13;;;29.25;43.11
36932;BME280;22847;42.654;23.370;2022-09-01T08:16:06;94472.09;;;30.35;42.28
36932;BME280;22847;42.654;23.370;2022-09-01T08:18:32;94413.97;;;30.24;41.63
36932;BME280;22847;42.654;23.370;2022-09-01T08:20:57;94490.41;;;30.48;41.98
36932;BME280;22847;42.654;23.370;2022-09-01T08:23:23;94250.41;;;29.21;41.64
36932;BME280;22847;42.654;23.370;2022-09-01T08:25:51;94471.75;;;30.67;41.77
36932;BME280;22847;42.654;23.370;2022-09-01T08:28:17;94314.25;;;30.00;41.17
36932;BME280;22847;42.654;23.370;2022-09-01T08:30:44;94399.72;;;30.23;41.99
36932;BME280;22847;42.654;23.370;2022-09-01T08:33:10;94484.22;;;30.07;43.25
36932;BME280;22847;42.654;23.370;2022-09-01T08:35:40;94446.00;;;30.25;42.25
36932;BME280;22847;42.654;23.370;2022-09-01T08:38:08;94453.53;;;30.18;42.62
36932;BME280;22847;42.654;23.370;2022-09-01T08:40:34;94442.53;;;30.04;41.80
36932;BME280;22847;42.654;23.370;2022-09-01T08:46:28;94414.81;;;29.84;43.24
36932;BME280;22847;42.654;23.370;2022-09-01T08:48:55;94467.00;;;30.13;43.10
36932;BME280;22847;42.654;23.370;2022-09-01T08:51:36;94475.56;;;30.45;42.41
36932;BME280;22847;42.654;23.370;2022-09-01T08:57:08;94269.44;;;28.79;42.37
36932;BME280;22847;42.654;23.370;2022-09-01T08:59:36;94403.28;;;29.88;42.47
36932;BME280;22847;42.654;23.370;2022-09-01T09:02:30;94403.25;;;29.83;42.00
36932;BME280;22847;42.654;23.370;2022-09-01T09:10:36;94427.75;;;30.07;41.60
36932;BME280;22847;42.654;23.370;2022-09-01T09:13:31;94391.19;;;29.76;41.76
36932;BME280;22847;42.654;23.370;2022-09-01T09:16:36;94413.16;;;30.48;40.95
36932;BME280;22847;42.654;23.370;2022-09-01T09:21:43;94419.13;;;30.94;40.58
36932;BME280;22847;42.654;23.370;2022-09-01T09:27:21;94410.22;;;31.04;40.19
36932;BME280;22847;42.654;23.370;2022-09-01T09:29:52;94403.78;;;30.95;38.96
36932;BME280;22847;42.654;23.370;2022-09-01T09:32:19;94426.91;;;31.11;38.74
36932;BME280;22847;42.654;23.370;2022-09-01T09:34:46;94424.00;;;31.03;39.04
36932;BME280;22847;42.654;23.370;2022-09-01T09:37:30;94349.09;;;30.50;38.73
36932;BME280;22847;42.654;23.370;2022-09-01T09:40:09;94403.50;;;30.96;38.22
36932;BME280;22847;42.654;23.370;2022-09-01T09:42:40;94366.94;;;30.85;38.32
36932;BME280;22847;42.654;23.370;2022-09-01T09:45:27;94419.50;;;31.32;37.99
36932;BME280;22847;42.654;23.370;2022-09-01T09:47:55;94402.00;;;31.29;37.62
36932;BME280;22847;42.654;23.370;2022-09-01T09:50:27;94414.41;;;31.25;37.76
36932;BME280;22847;42.654;23.370;2022-09-01T09:53:29;94369.13;;;30.78;39.05
36932;BME280;22847;42.654;23.370;2022-09-01T09:56:22;94389.25;;;31.01;38.42
36932;BME280;22847;42.654;23.370;2022-09-01T09:58:51;94379.13;;;31.27;37.80
36932;BME280;22847;42.654;23.370;2022-09-01T10:03:58;94375.22;;;30.94;39.47
36932;BME280;22847;42.654;23.370;2022-09-01T10:09:00;94387.41;;;30.07;40.83
36932;BME280;22847;42.654;23.370;2022-09-01T10:11:27;94387.16;;;29.98;40.97
36932;BME280;22847;42.654;23.370;2022-09-01T10:13:54;94368.88;;;29.60;39.97
36932;BME280;22847;42.654;23.370;2022-09-01T10:16:30;94183.25;;;28.40;40.18
36932;BME280;22847;42.654;23.370;2022-09-01T10:18:57;94378.81;;;29.59;39.57
36932;BME280;22847;42.654;23.370;2022-09-01T10:21:26;94380.72;;;29.49;41.23
36932;BME280;22847;42.654;23.370;2022-09-01T10:23:53;94379.56;;;29.24;39.94
36932;BME280;22847;42.654;23.370;2022-09-01T10:26:23;94381.91;;;28.75;41.11
36932;BME280;22847;42.654;23.370;2022-09-01T10:28:55;94375.22;;;28.93;41.27
36932;BME280;22847;42.654;23.370;2022-09-01T10:31:24;94373.59;;;28.87;41.03
36932;BME280;22847;42.654;23.370;2022-09-01T10:33:49;94373.09;;;28.90;41.73
36932;BME280;22847;42.654;23.370;2022-09-01T10:36:15;94365.38;;;28.47;41.76
36932;BME280;22847;42.654;23.370;2022-09-01T10:38:41;94359.34;;;28.19;42.67
36932;BME280;22847;42.654;23.370;2022-09-01T10:41:06;94364.91;;;28.55;42.01
36932;BME280;22847;42.654;23.370;2022-09-01T10:43:33;94367.88;;;28.63;42.30
36932;BME280;22847;42.654;23.370;2022-09-01T10:46:00;94371.09;;;28.65;41.87
36932;BME280;22847;42.654;23.370;2022-09-01T10:48:32;94362.84;;;28.82;41.92
36932;BME280;22847;42.654;23.370;2022-09-01T10:53:40;94365.25;;;28.78;40.82
36932;BME280;22847;42.654;23.370;2022-09-01T11:01:00;94348.63;;;28.92;40.67
36932;BME280;22847;42.654;23.370;2022-09-01T11:03:34;94355.38;;;28.99;40.60
36932;BME280;22847;42.654;23.370;2022-09-01T11:06:00;94351.91;;;29.04;42.13
36932;BME280;22847;42.654;23.370;2022-09-01T11:11:02;94338.22;;;29.15;41.43
36932;BME280;22847;42.654;23.370;2022-09-01T11:18:44;94337.94;;;29.07;42.70
36932;BME280;22847;42.654;23.370;2022-09-01T11:21:24;94343.00;;;28.83;42.62
36932;BME280;22847;42.654;23.370;2022-09-01T11:24:34;94342.19;;;28.88;42.68
36932;BME280;22847;42.654;23.370;2022-09-01T11:26:44;94333.03;;;28.78;42.27
36932;BME280;22847;42.654;23.370;2022-09-01T11:29:48;94327.41;;;28.80;42.18
36932;BME280;22847;42.654;23.370;2022-09-01T11:31:55;94327.16;;;28.81;41.97
36932;BME280;22847;42.654;23.370;2022-09-01T11:34:20;94325.78;;;28.74;41.33
36932;BME280;22847;42.654;23.370;2022-09-01T11:41:52;94315.63;;;29.01;41.10
36932;BME280;22847;42.654;23.370;2022-09-01T11:46:47;94305.19;;;29.45;40.56
36932;BME280;22847;42.654;23.370;2022-09-01T11:49:25;94301.97;;;29.48;41.59
36932;BME280;22847;42.654;23.370;2022-09-01T11:51:52;94286.13;;;29.52;40.70
36932;BME280;22847;42.654;23.370;2022-09-01T11:54:17;94284.50;;;29.46;41.35
36932;BME280;22847;42.654;23.370;2022-09-01T11:56:42;94276.19;;;29.47;41.62
36932;BME280;22847;42.654;23.370;2022-09-01T11:59:08;94288.81;;;29.52;41.62
36932;BME280;22847;42.654;23.370;2022-09-01T12:01:34;94282.84;;;29.80;41.99
36932;BME280;22847;42.654;23.370;2022-09-01T12:04:20;94280.97;;;29.70;42.11
36932;BME280;22847;42.654;23.370;2022-09-01T12:06:54;94274.47;;;29.97;42.74
36932;BME280;22847;42.654;23.370;2022-09-01T12:09:22;94273.31;;;30.13;42.45
36932;BME280;22847;42.654;23.370;2022-09-01T12:11:55;94265.78;;;30.20;42.19
36932;BME280;22847;42.654;23.370;2022-09-01T12:14:21;94270.41;;;30.04;42.01
36932;BME280;22847;42.654;23.370;2022-09-01T12:16:54;94275.28;;;29.97;42.58
36932;BME280;22847;42.654;23.370;2022-09-01T12:19:24;94270.72;;;29.83;42.77
36932;BME280;22847;42.654;23.370;2022-09-01T12:24:46;94269.19;;;29.36;43.37
36932;BME280;22847;42.654;23.370;2022-09-01T12:27:12;94273.50;;;29.32;44.51
36932;BME280;22847;42.654;23.370;2022-09-01T12:29:38;94271.34;;;29.04;44.22
36932;BME280;22847;42.654;23.370;2022-09-01T12:32:04;94269.75;;;29.18;44.01
36932;BME280;22847;42.654;23.370;2022-09-01T12:37:04;94271.34;;;28.99;44.23
36932;BME280;22847;42.654;23.370;2022-09-01T12:39:36;94266.25;;;29.07;44.03
36932;BME280;22847;42.654;23.370;2022-09-01T12:42:04;94268.09;;;28.92;44.30
36932;BME280;22847;42.654;23.370;2022-09-01T12:44:32;94272.97;;;29.00;44.03
36932;BME280;22847;42.654;23.370;2022-09-01T12:47:02;94263.81;;;28.96;44.30
36932;BME280;22847;42.654;23.370;2022-09-01T12:54:44;94265.41;;;28.92;44.68
36932;BME280;22847;42.654;23.370;2022-09-01T12:57:09;94268.38;;;28.85;45.04
36932;BME280;22847;42.654;23.370;2022-09-01T12:59:36;94265.13;;;28.68;45.03
36932;BME280;22847;42.654;23.370;2022-09-01T13:04:45;94258.66;;;28.69;46.51
36932;BME280;22847;42.654;23.370;2022-09-01T13:07:10;94258.97;;;28.93;46.24
36932;BME280;22847;42.654;23.370;2022-09-01T13:09:36;94253.59;;;29.23;45.61
36932;BME280;22847;42.654;23.370;2022-09-01T13:12:08;94255.22;;;29.49;44.68
36932;BME280;22847;42.654;23.370;2022-09-01T13:14:34;94248.19;;;29.63;43.80
36932;BME280;22847;42.654;23.370;2022-09-01T13:16:59;94248.50;;;29.57;44.04
36932;BME280;22847;42.654;23.370;2022-09-01T13:19:25;94236.94;;;29.46;44.27
36932;BME280;22847;42.654;23.370;2022-09-01T13:21:50;94236.38;;;29.59;44.57
36932;BME280;22847;42.654;23.370;2022-09-01T13:24:15;94239.03;;;29.75;44.28
36932;BME280;22847;42.654;23.370;2022-09-01T13:26:41;94237.25;;;29.30;44.34
36932;BME280;22847;42.654;23.370;2022-09-01T13:29:10;94245.56;;;29.08;44.78
36932;BME280;22847;42.654;23.370;2022-09-01T13:31:36;94247.41;;;28.67;46.09
36932;BME280;22847;42.654;23.370;2022-09-01T13:34:01;94243.63;;;28.53;46.54
36932;BME280;22847;42.654;23.370;2022-09-01T13:36:26;94250.34;;;28.50;46.89
36932;BME280;22847;42.654;23.370;2022-09-01T13:38:51;94250.81;;;28.27;47.45
36932;BME280;22847;42.654;23.370;2022-09-01T13:41:17;94252.38;;;28.18;47.56
36932;BME280;22847;42.654;23.370;2022-09-01T13:43:42;94255.63;;;28.25;47.54
36932;BME280;22847;42.654;23.370;2022-09-01T13:46:07;94253.19;;;28.18;49.21
36932;BME280;22847;42.654;23.370;2022-09-01T13:48:33;94254.25;;;28.12;50.14
36932;BME280;22847;42.654;23.370;2022-09-01T13:50:59;94252.81;;;27.94;50.99
36932;BME280;22847;42.654;23.370;2022-09-01T13:53:24;94252.22;;;27.82;51.37
36932;BME280;22847;42.654;23.370;2022-09-01T13:55:50;94253.25;;;27.76;51.42
36932;BME280;22847;42.654;23.370;2022-09-01T13:58:15;94246.31;;;27.80;51.35